sensor_id;sensor_type;location;lat;lon;timestamp;P1;durP1;ratioP1;P2;durP2;ratioP2
28270;SDS011;15527;0.000;0.000;2023-04-19T00:00:01;16.50;;;14.83;;
28270;SDS011;15527;0.000;0.000;2023-04-19T00:01:06;17.33;;;14.20;;
28270;SDS011;15527;0.000;0.000;2023-04-19T00:02:05;16.30;;;14.57;;
28270;SDS011;15527;0.000;0.000;2023-04-19T00:03:05;16.37;;;14.67;;
28270;SDS011;15527;0.000;0.000;2023-04-19T00:04:05;16.20;;;14.50;;
28270;SDS011;15527;0.000;0.000;2023-04-19T00:05:05;16.77;;;15.07;;
28270;SDS011;15527;0.000;0.000;2023-04-19T00:06:04;16.53;;;14.93;;
28270;SDS011;15527;0.000;0.000;2023-04-19T00:07:05;16.23;;;14.63;;
28270;SDS011;15527;0.000;0.000;2023-04-19T00:08:04;15.63;;;13.93;;
28270;SDS011;15527;0.000;0.000;2023-04-19T00:09:03;16.23;;;14.53;;
28270;SDS011;15527;0.000;0.000;2023-04-19T00:10:02;16.30;;;14.70;;
28270;SDS011;15527;0.000;0.000;2023-04-19T00:11:01;16.60;;;14.13;;
28270;SDS011;15527;0.000;0.000;2023-04-19T00:11:59;16.10;;;14.40;;
28270;SDS011;15527;0.000;0.000;2023-04-19T00:12:58;16.37;;;14.67;;
28270;SDS011;15527;0.000;0.000;2023-04-19T00:13:56;16.10;;;14.50;;
28270;SDS011;15527;0.000;0.000;2023-04-19T00:14:55;16.27;;;14.57;;
28270;SDS011;15527;0.000;0.000;2023-04-19T00:15:54;17.53;;;15.00;;
28270;SDS011;15527;0.000;0.000;2023-04-19T00:16:52;16.77;;;14.97;;
28270;SDS011;15527;0.000;0.000;2023-04-19T00:17:51;16.40;;;14.70;;
28270;SDS011;15527;0.000;0.000;2023-04-19T00:18:50;15.97;;;14.10;;
28270;SDS011;15527;0.000;0.000;2023-04-19T00:19:48;16.30;;;14.60;;
28270;SDS011;15527;0.000;0.000;2023-04-19T00:20:47;17.27;;;15.53;;
28270;SDS011;15527;0.000;0.000;2023-04-19T00:21:46;16.93;;;15.13;;
28270;SDS011;15527;0.000;0.000;2023-04-19T00:22:45;16.17;;;14.50;;
28270;SDS011;15527;0.000;0.000;2023-04-19T00:23:43;16.37;;;14.70;;
28270;SDS011;15527;0.000;0.000;2023-04-19T00:24:42;17.23;;;15.43;;
28270;SDS011;15527;0.000;0.000;2023-04-19T00:25:40;17.73;;;15.00;;
28270;SDS011;15527;0.000;0.000;2023-04-19T00:26:39;16.90;;;15.20;;
28270;SDS011;15527;0.000;0.000;2023-04-19T00:27:39;17.47;;;15.33;;
28270;SDS011;15527;0.000;0.000;2023-04-19T00:28:37;17.00;;;14.27;;
28270;SDS011;15527;0.000;0.000;2023-04-19T00:29:37;17.77;;;15.30;;
28270;SDS011;15527;0.000;0.000;2023-04-19T00:30:36;16.67;;;14.97;;
28270;SDS011;15527;0.000;0.000;2023-04-19T00:31:35;18.80;;;15.13;;
28270;SDS011;15527;0.000;0.000;2023-04-19T00:32:33;16.53;;;14.83;;
28270;SDS011;15527;0.000;0.000;2023-04-19T00:33:32;17.60;;;15.10;;
28270;SDS011;15527;0.000;0.000;2023-04-19T00:34:32;17.23;;;15.40;;
28270;SDS011;15527;0.000;0.000;2023-04-19T00:35:30;18.43;;;14.73;;
28270;SDS011;15527;0.000;0.000;2023-04-19T00:36:29;17.07;;;15.27;;
28270;SDS011;15527;0.000;0.000;2023-04-19T00:37:27;15.67;;;14.03;;
28270;SDS011;15527;0.000;0.000;2023-04-19T00:38:26;17.53;;;15.60;;
28270;SDS011;15527;0.000;0.000;2023-04-19T00:39:24;17.87;;;15.80;;
28270;SDS011;15527;0.000;0.000;2023-04-19T00:40:23;17.63;;;15.50;;
28270;SDS011;15527;0.000;0.000;2023-04-19T00:41:21;18.20;;;15.27;;
28270;SDS011;15527;0.000;0.000;2023-04-19T00:42:20;16.93;;;15.03;;
28270;SDS011;15527;0.000;0.000;2023-04-19T00:43:20;17.20;;;15.40;;
28270;SDS011;15527;0.000;0.000;2023-04-19T00:44:18;18.63;;;15.20;;
28270;SDS011;15527;0.000;0.000;2023-04-19T00:45:17;16.87;;;15.13;;
28270;SDS011;15527;0.000;0.000;2023-04-19T00:46:16;18.00;;;16.13;;
28270;SDS011;15527;0.000;0.000;2023-04-19T00:47:14;17.60;;;15.07;;
28270;SDS011;15527;0.000;0.000;2023-04-19T00:48:13;19.00;;;16.03;;
28270;SDS011;15527;0.000;0.000;2023-04-19T00:49:12;16.20;;;14.50;;
28270;SDS011;15527;0.000;0.000;2023-04-19T00:50:10;17.60;;;15.70;;
28270;SDS011;15527;0.000;0.000;2023-04-19T00:51:10;16.60;;;14.80;;
28270;SDS011;15527;0.000;0.000;2023-04-19T00:52:09;16.17;;;14.47;;
28270;SDS011;15527;0.000;0.000;2023-04-19T00:53:07;16.87;;;15.17;;
28270;SDS011;15527;0.000;0.000;2023-04-19T00:54:07;16.07;;;14.10;;
28270;SDS011;15527;0.000;0.000;2023-04-19T00:55:06;16.70;;;14.90;;
28270;SDS011;15527;0.000;0.000;2023-04-19T00:56:05;17.07;;;14.90;;
28270;SDS011;15527;0.000;0.000;2023-04-19T00:57:05;16.03;;;14.27;;
28270;SDS011;15527;0.000;0.000;2023-04-19T00:58:07;16.57;;;14.87;;
28270;SDS011;15527;0.000;0.000;2023-04-19T00:59:06;18.07;;;14.23;;
28270;SDS011;15527;0.000;0.000;2023-04-19T01:00:04;15.73;;;14.13;;
28270;SDS011;15527;0.000;0.000;2023-04-19T01:01:05;16.33;;;14.17;;
28270;SDS011;15527;0.000;0.000;2023-04-19T01:02:04;18.87;;;15.37;;
28270;SDS011;15527;0.000;0.000;2023-04-19T01:03:04;16.73;;;14.27;;
28270;SDS011;15527;0.000;0.000;2023-04-19T01:04:05;16.33;;;14.17;;
28270;SDS011;15527;0.000;0.000;2023-04-19T01:05:04;17.87;;;14.77;;
28270;SDS011;15527;0.000;0.000;2023-04-19T01:06:04;16.40;;;14.00;;
28270;SDS011;15527;0.000;0.000;2023-04-19T01:07:06;15.80;;;14.10;;
28270;SDS011;15527;0.000;0.000;2023-04-19T01:08:05;16.77;;;14.83;;
28270;SDS011;15527;0.000;0.000;2023-04-19T01:09:05;15.93;;;14.23;;
28270;SDS011;15527;0.000;0.000;2023-04-19T01:10:04;15.73;;;13.97;;
28270;SDS011;15527;0.000;0.000;2023-04-19T01:11:03;16.83;;;14.77;;
28270;SDS011;15527;0.000;0.000;2023-04-19T01:12:01;15.90;;;14.23;;
28270;SDS011;15527;0.000;0.000;2023-04-19T01:13:00;16.73;;;14.10;;
28270;SDS011;15527;0.000;0.000;2023-04-19T01:13:59;16.70;;;14.67;;
28270;SDS011;15527;0.000;0.000;2023-04-19T01:14:57;15.63;;;14.03;;
28270;SDS011;15527;0.000;0.000;2023-04-19T01:15:56;16.07;;;14.23;;
28270;SDS011;15527;0.000;0.000;2023-04-19T01:16:55;15.70;;;14.10;;
28270;SDS011;15527;0.000;0.000;2023-04-19T01:17:54;16.73;;;14.00;;
28270;SDS011;15527;0.000;0.000;2023-04-19T01:18:53;16.37;;;14.53;;
28270;SDS011;15527;0.000;0.000;2023-04-19T01:19:57;16.00;;;14.30;;
28270;SDS011;15527;0.000;0.000;2023-04-19T01:21:00;16.80;;;14.10;;
28270;SDS011;15527;0.000;0.000;2023-04-19T01:21:59;16.93;;;14.67;;
28270;SDS011;15527;0.000;0.000;2023-04-19T01:23:00;15.93;;;13.40;;
28270;SDS011;15527;0.000;0.000;2023-04-19T01:23:58;17.07;;;14.23;;
28270;SDS011;15527;0.000;0.000;2023-04-19T01:25:00;17.87;;;14.87;;
28270;SDS011;15527;0.000;0.000;2023-04-19T01:25:58;17.00;;;15.20;;
28270;SDS011;15527;0.000;0.000;2023-04-19T01:26:58;15.90;;;13.70;;
28270;SDS011;15527;0.000;0.000;2023-04-19T01:27:57;15.93;;;14.23;;
28270;SDS011;15527;0.000;0.000;2023-04-19T01:28:56;15.97;;;14.20;;
28270;SDS011;15527;0.000;0.000;2023-04-19T01:29:54;17.73;;;14.80;;
28270;SDS011;15527;0.000;0.000;2023-04-19T01:30:53;15.83;;;13.80;;
28270;SDS011;15527;0.000;0.000;2023-04-19T01:31:52;15.77;;;14.13;;
28270;SDS011;15527;0.000;0.000;2023-04-19T01:32:51;15.23;;;13.63;;
28270;SDS011;15527;0.000;0.000;2023-04-19T01:33:49;16.27;;;14.00;;
28270;SDS011;15527;0.000;0.000;2023-04-19T01:34:49;15.57;;;13.87;;
28270;SDS011;15527;0.000;0.000;2023-04-19T01:35:48;14.83;;;13.23;;
28270;SDS011;15527;0.000;0.000;2023-04-19T01:36:48;17.37;;;14.67;;
28270;SDS011;15527;0.000;0.000;2023-04-19T01:37:46;14.97;;;13.33;;
28270;SDS011;15527;0.000;0.000;2023-04-19T01:38:45;15.43;;;13.13;;
28270;SDS011;15527;0.000;0.000;2023-04-19T01:39:44;15.40;;;13.80;;
28270;SDS011;15527;0.000;0.000;2023-04-19T01:40:43;16.07;;;14.37;;
28270;SDS011;15527;0.000;0.000;2023-04-19T01:41:42;16.97;;;14.63;;
28270;SDS011;15527;0.000;0.000;2023-04-19T01:42:40;16.80;;;13.97;;
28270;SDS011;15527;0.000;0.000;2023-04-19T01:43:39;19.17;;;13.73;;
28270;SDS011;15527;0.000;0.000;2023-04-19T01:44:37;17.60;;;14.93;;
28270;SDS011;15527;0.000;0.000;2023-04-19T01:45:36;17.33;;;14.20;;
28270;SDS011;15527;0.000;0.000;2023-04-19T01:46:35;16.60;;;14.47;;
28270;SDS011;15527;0.000;0.000;2023-04-19T01:47:35;16.37;;;13.93;;
28270;SDS011;15527;0.000;0.000;2023-04-19T01:48:34;17.17;;;14.27;;
28270;SDS011;15527;0.000;0.000;2023-04-19T01:49:35;15.80;;;14.13;;
28270;SDS011;15527;0.000;0.000;2023-04-19T01:50:34;15.03;;;13.50;;
28270;SDS011;15527;0.000;0.000;2023-04-19T01:51:32;15.43;;;13.83;;
28270;SDS011;15527;0.000;0.000;2023-04-19T01:52:34;17.03;;;13.90;;
28270;SDS011;15527;0.000;0.000;2023-04-19T01:53:32;16.07;;;13.47;;
28270;SDS011;15527;0.000;0.000;2023-04-19T01:54:31;16.73;;;13.90;;
28270;SDS011;15527;0.000;0.000;2023-04-19T01:55:30;16.13;;;13.67;;
28270;SDS011;15527;0.000;0.000;2023-04-19T01:56:29;16.73;;;14.10;;
28270;SDS011;15527;0.000;0.000;2023-04-19T01:57:29;15.60;;;14.00;;
28270;SDS011;15527;0.000;0.000;2023-04-19T01:58:28;15.33;;;13.83;;
28270;SDS011;15527;0.000;0.000;2023-04-19T01:59:26;16.57;;;14.77;;
28270;SDS011;15527;0.000;0.000;2023-04-19T02:00:25;16.13;;;14.27;;
28270;SDS011;15527;0.000;0.000;2023-04-19T02:01:24;16.90;;;13.73;;
28270;SDS011;15527;0.000;0.000;2023-04-19T02:02:22;17.13;;;14.93;;
28270;SDS011;15527;0.000;0.000;2023-04-19T02:03:21;15.60;;;14.00;;
28270;SDS011;15527;0.000;0.000;2023-04-19T02:04:19;17.33;;;14.77;;
28270;SDS011;15527;0.000;0.000;2023-04-19T02:05:21;16.67;;;14.27;;
28270;SDS011;15527;0.000;0.000;2023-04-19T02:06:19;16.33;;;14.17;;
28270;SDS011;15527;0.000;0.000;2023-04-19T02:07:18;15.73;;;14.13;;
28270;SDS011;15527;0.000;0.000;2023-04-19T02:08:16;16.93;;;15.17;;
28270;SDS011;15527;0.000;0.000;2023-04-19T02:09:15;17.00;;;13.93;;
28270;SDS011;15527;0.000;0.000;2023-04-19T02:10:13;15.90;;;14.33;;
28270;SDS011;15527;0.000;0.000;2023-04-19T02:11:12;15.50;;;13.83;;
28270;SDS011;15527;0.000;0.000;2023-04-19T02:12:11;16.67;;;14.90;;
28270;SDS011;15527;0.000;0.000;2023-04-19T02:13:10;19.47;;;15.07;;
28270;SDS011;15527;0.000;0.000;2023-04-19T02:14:08;15.10;;;13.53;;
28270;SDS011;15527;0.000;0.000;2023-04-19T02:15:07;17.50;;;14.63;;
28270;SDS011;15527;0.000;0.000;2023-04-19T02:16:06;16.07;;;13.07;;
28270;SDS011;15527;0.000;0.000;2023-04-19T02:17:05;16.90;;;14.57;;
28270;SDS011;15527;0.000;0.000;2023-04-19T02:18:04;19.47;;;14.73;;
28270;SDS011;15527;0.000;0.000;2023-04-19T02:19:03;17.23;;;14.63;;
28270;SDS011;15527;0.000;0.000;2023-04-19T02:20:02;15.07;;;13.57;;
28270;SDS011;15527;0.000;0.000;2023-04-19T02:21:01;15.83;;;14.00;;
28270;SDS011;15527;0.000;0.000;2023-04-19T02:22:00;15.50;;;13.73;;
28270;SDS011;15527;0.000;0.000;2023-04-19T02:22:59;16.17;;;14.47;;
28270;SDS011;15527;0.000;0.000;2023-04-19T02:23:57;18.97;;;14.63;;
28270;SDS011;15527;0.000;0.000;2023-04-19T02:24:56;16.27;;;13.90;;
28270;SDS011;15527;0.000;0.000;2023-04-19T02:25:55;16.63;;;14.63;;
28270;SDS011;15527;0.000;0.000;2023-04-19T02:26:53;15.80;;;14.13;;
28270;SDS011;15527;0.000;0.000;2023-04-19T02:27:52;17.07;;;15.27;;
28270;SDS011;15527;0.000;0.000;2023-04-19T02:28:51;15.93;;;14.23;;
28270;SDS011;15527;0.000;0.000;2023-04-19T02:29:49;16.90;;;13.60;;
28270;SDS011;15527;0.000;0.000;2023-04-19T02:30:48;17.83;;;13.70;;
28270;SDS011;15527;0.000;0.000;2023-04-19T02:31:47;15.90;;;13.63;;
28270;SDS011;15527;0.000;0.000;2023-04-19T02:32:46;17.53;;;14.40;;
28270;SDS011;15527;0.000;0.000;2023-04-19T02:33:45;16.83;;;14.30;;
28270;SDS011;15527;0.000;0.000;2023-04-19T02:34:44;16.43;;;14.40;;
28270;SDS011;15527;0.000;0.000;2023-04-19T02:35:43;15.17;;;13.57;;
28270;SDS011;15527;0.000;0.000;2023-04-19T02:36:41;16.30;;;13.73;;
28270;SDS011;15527;0.000;0.000;2023-04-19T02:37:40;16.50;;;13.70;;
28270;SDS011;15527;0.000;0.000;2023-04-19T02:38:39;15.50;;;13.90;;
28270;SDS011;15527;0.000;0.000;2023-04-19T02:39:37;15.53;;;13.67;;
28270;SDS011;15527;0.000;0.000;2023-04-19T02:40:36;16.50;;;13.67;;
28270;SDS011;15527;0.000;0.000;2023-04-19T02:41:35;14.73;;;13.10;;
28270;SDS011;15527;0.000;0.000;2023-04-19T02:42:33;17.27;;;13.93;;
28270;SDS011;15527;0.000;0.000;2023-04-19T02:43:32;17.67;;;13.23;;
28270;SDS011;15527;0.000;0.000;2023-04-19T02:44:31;16.50;;;13.37;;
28270;SDS011;15527;0.000;0.000;2023-04-19T02:45:30;15.37;;;13.07;;
28270;SDS011;15527;0.000;0.000;2023-04-19T02:46:28;15.47;;;13.87;;
28270;SDS011;15527;0.000;0.000;2023-04-19T02:47:27;14.67;;;12.50;;
28270;SDS011;15527;0.000;0.000;2023-04-19T02:48:25;15.40;;;12.80;;
28270;SDS011;15527;0.000;0.000;2023-04-19T02:49:24;15.37;;;12.40;;
28270;SDS011;15527;0.000;0.000;2023-04-19T02:50:23;13.57;;;12.17;;
28270;SDS011;15527;0.000;0.000;2023-04-19T02:51:21;14.60;;;12.60;;
28270;SDS011;15527;0.000;0.000;2023-04-19T02:52:20;14.60;;;12.27;;
28270;SDS011;15527;0.000;0.000;2023-04-19T02:53:18;13.27;;;11.87;;
28270;SDS011;15527;0.000;0.000;2023-04-19T02:54:17;13.00;;;11.70;;
28270;SDS011;15527;0.000;0.000;2023-04-19T02:55:15;13.97;;;11.63;;
28270;SDS011;15527;0.000;0.000;2023-04-19T02:56:14;12.83;;;11.37;;
28270;SDS011;15527;0.000;0.000;2023-04-19T02:57:13;13.00;;;11.47;;
28270;SDS011;15527;0.000;0.000;2023-04-19T02:58:11;14.40;;;11.10;;
28270;SDS011;15527;0.000;0.000;2023-04-19T02:59:10;14.47;;;11.43;;
28270;SDS011;15527;0.000;0.000;2023-04-19T03:00:09;14.30;;;11.00;;
28270;SDS011;15527;0.000;0.000;2023-04-19T03:01:08;12.33;;;10.23;;
28270;SDS011;15527;0.000;0.000;2023-04-19T03:02:07;12.23;;;10.17;;
28270;SDS011;15527;0.000;0.000;2023-04-19T03:03:06;10.93;;;9.50;;
28270;SDS011;15527;0.000;0.000;2023-04-19T03:04:04;12.23;;;9.80;;
28270;SDS011;15527;0.000;0.000;2023-04-19T03:05:03;12.20;;;10.20;;
28270;SDS011;15527;0.000;0.000;2023-04-19T03:06:03;12.37;;;10.57;;
28270;SDS011;15527;0.000;0.000;2023-04-19T03:07:02;11.40;;;9.53;;
28270;SDS011;15527;0.000;0.000;2023-04-19T03:08:00;10.77;;;9.50;;
28270;SDS011;15527;0.000;0.000;2023-04-19T03:08:59;10.67;;;9.23;;
28270;SDS011;15527;0.000;0.000;2023-04-19T03:09:57;10.53;;;9.43;;
28270;SDS011;15527;0.000;0.000;2023-04-19T03:10:56;10.77;;;8.67;;
28270;SDS011;15527;0.000;0.000;2023-04-19T03:11:55;10.87;;;8.67;;
28270;SDS011;15527;0.000;0.000;2023-04-19T03:12:54;10.20;;;9.17;;
28270;SDS011;15527;0.000;0.000;2023-04-19T03:13:52;9.03;;;8.13;;
28270;SDS011;15527;0.000;0.000;2023-04-19T03:14:51;11.17;;;9.27;;
28270;SDS011;15527;0.000;0.000;2023-04-19T03:15:50;9.40;;;8.40;;
28270;SDS011;15527;0.000;0.000;2023-04-19T03:16:48;9.53;;;8.43;;
28270;SDS011;15527;0.000;0.000;2023-04-19T03:17:47;9.20;;;8.30;;
28270;SDS011;15527;0.000;0.000;2023-04-19T03:18:45;10.53;;;8.60;;
28270;SDS011;15527;0.000;0.000;2023-04-19T03:19:44;10.20;;;8.03;;
28270;SDS011;15527;0.000;0.000;2023-04-19T03:20:42;9.00;;;8.10;;
28270;SDS011;15527;0.000;0.000;2023-04-19T03:21:41;10.20;;;8.73;;
28270;SDS011;15527;0.000;0.000;2023-04-19T03:22:40;9.93;;;8.90;;
28270;SDS011;15527;0.000;0.000;2023-04-19T03:23:38;11.00;;;9.23;;
28270;SDS011;15527;0.000;0.000;2023-04-19T03:24:37;10.13;;;8.93;;
28270;SDS011;15527;0.000;0.000;2023-04-19T03:25:35;15.30;;;8.80;;
28270;SDS011;15527;0.000;0.000;2023-04-19T03:26:34;11.00;;;8.70;;
28270;SDS011;15527;0.000;0.000;2023-04-19T03:27:35;11.27;;;8.87;;
28270;SDS011;15527;0.000;0.000;2023-04-19T03:28:34;9.10;;;8.20;;
28270;SDS011;15527;0.000;0.000;2023-04-19T03:29:32;9.83;;;8.50;;
28270;SDS011;15527;0.000;0.000;2023-04-19T03:30:31;9.00;;;8.00;;
28270;SDS011;15527;0.000;0.000;2023-04-19T03:31:29;16.27;;;8.63;;
28270;SDS011;15527;0.000;0.000;2023-04-19T03:32:28;9.27;;;8.27;;
28270;SDS011;15527;0.000;0.000;2023-04-19T03:33:26;10.73;;;8.90;;
28270;SDS011;15527;0.000;0.000;2023-04-19T03:34:25;9.93;;;7.80;;
28270;SDS011;15527;0.000;0.000;2023-04-19T03:35:23;8.27;;;7.47;;
28270;SDS011;15527;0.000;0.000;2023-04-19T03:36:23;9.90;;;8.17;;
28270;SDS011;15527;0.000;0.000;2023-04-19T03:37:22;9.30;;;8.10;;
28270;SDS011;15527;0.000;0.000;2023-04-19T03:38:20;9.30;;;7.77;;
28270;SDS011;15527;0.000;0.000;2023-04-19T03:39:19;10.57;;;8.23;;
28270;SDS011;15527;0.000;0.000;2023-04-19T03:40:17;8.90;;;7.97;;
28270;SDS011;15527;0.000;0.000;2023-04-19T03:41:23;9.03;;;7.70;;
28270;SDS011;15527;0.000;0.000;2023-04-19T03:42:22;10.17;;;7.97;;
28270;SDS011;15527;0.000;0.000;2023-04-19T03:43:21;8.80;;;7.90;;
28270;SDS011;15527;0.000;0.000;2023-04-19T03:44:21;9.33;;;8.30;;
28270;SDS011;15527;0.000;0.000;2023-04-19T03:45:20;8.93;;;8.03;;
28270;SDS011;15527;0.000;0.000;2023-04-19T03:46:19;11.23;;;7.80;;
28270;SDS011;15527;0.000;0.000;2023-04-19T03:47:18;8.40;;;7.60;;
28270;SDS011;15527;0.000;0.000;2023-04-19T03:48:16;8.57;;;7.63;;
28270;SDS011;15527;0.000;0.000;2023-04-19T03:49:15;11.10;;;7.60;;
28270;SDS011;15527;0.000;0.000;2023-04-19T03:50:13;8.13;;;7.33;;
28270;SDS011;15527;0.000;0.000;2023-04-19T03:51:12;9.90;;;7.87;;
28270;SDS011;15527;0.000;0.000;2023-04-19T03:52:12;8.37;;;7.47;;
28270;SDS011;15527;0.000;0.000;2023-04-19T03:53:11;8.43;;;7.37;;
28270;SDS011;15527;0.000;0.000;2023-04-19T03:54:10;9.47;;;7.83;;
28270;SDS011;15527;0.000;0.000;2023-04-19T03:55:09;9.67;;;7.87;;
28270;SDS011;15527;0.000;0.000;2023-04-19T03:56:09;9.27;;;7.40;;
28270;SDS011;15527;0.000;0.000;2023-04-19T03:57:07;8.17;;;7.37;;
28270;SDS011;15527;0.000;0.000;2023-04-19T03:58:06;8.33;;;7.53;;
28270;SDS011;15527;0.000;0.000;2023-04-19T03:59:05;9.47;;;7.53;;
28270;SDS011;15527;0.000;0.000;2023-04-19T04:00:03;8.00;;;7.20;;
28270;SDS011;15527;0.000;0.000;2023-04-19T04:01:05;8.03;;;7.23;;
28270;SDS011;15527;0.000;0.000;2023-04-19T04:02:05;8.10;;;7.13;;
28270;SDS011;15527;0.000;0.000;2023-04-19T04:03:04;7.90;;;7.10;;
28270;SDS011;15527;0.000;0.000;2023-04-19T04:04:03;7.63;;;6.90;;
28270;SDS011;15527;0.000;0.000;2023-04-19T04:05:01;9.27;;;6.97;;
28270;SDS011;15527;0.000;0.000;2023-04-19T04:06:00;8.87;;;7.00;;
28270;SDS011;15527;0.000;0.000;2023-04-19T04:06:59;7.03;;;6.17;;
28270;SDS011;15527;0.000;0.000;2023-04-19T04:07:58;7.13;;;6.43;;
28270;SDS011;15527;0.000;0.000;2023-04-19T04:08:56;7.07;;;6.27;;
28270;SDS011;15527;0.000;0.000;2023-04-19T04:09:55;7.37;;;6.43;;
28270;SDS011;15527;0.000;0.000;2023-04-19T04:10:53;7.37;;;6.67;;
28270;SDS011;15527;0.000;0.000;2023-04-19T04:11:52;6.80;;;6.20;;
28270;SDS011;15527;0.000;0.000;2023-04-19T04:12:53;7.03;;;5.83;;
28270;SDS011;15527;0.000;0.000;2023-04-19T04:13:53;7.30;;;6.43;;
28270;SDS011;15527;0.000;0.000;2023-04-19T04:14:53;6.50;;;5.80;;
28270;SDS011;15527;0.000;0.000;2023-04-19T04:15:51;6.90;;;6.30;;
28270;SDS011;15527;0.000;0.000;2023-04-19T04:16:50;7.07;;;6.37;;
28270;SDS011;15527;0.000;0.000;2023-04-19T04:17:48;7.13;;;6.10;;
28270;SDS011;15527;0.000;0.000;2023-04-19T04:18:49;7.10;;;6.07;;
28270;SDS011;15527;0.000;0.000;2023-04-19T04:19:47;7.20;;;5.97;;
28270;SDS011;15527;0.000;0.000;2023-04-19T04:20:46;6.87;;;5.90;;
28270;SDS011;15527;0.000;0.000;2023-04-19T04:21:45;7.40;;;6.30;;
28270;SDS011;15527;0.000;0.000;2023-04-19T04:22:43;6.17;;;5.37;;
28270;SDS011;15527;0.000;0.000;2023-04-19T04:23:45;6.37;;;5.77;;
28270;SDS011;15527;0.000;0.000;2023-04-19T04:24:44;7.87;;;5.57;;
28270;SDS011;15527;0.000;0.000;2023-04-19T04:25:42;5.97;;;5.47;;
28270;SDS011;15527;0.000;0.000;2023-04-19T04:26:41;6.23;;;5.57;;
28270;SDS011;15527;0.000;0.000;2023-04-19T04:27:40;6.37;;;5.50;;
28270;SDS011;15527;0.000;0.000;2023-04-19T04:28:40;8.17;;;5.53;;
28270;SDS011;15527;0.000;0.000;2023-04-19T04:29:39;5.77;;;5.07;;
28270;SDS011;15527;0.000;0.000;2023-04-19T04:30:38;6.80;;;5.80;;
28270;SDS011;15527;0.000;0.000;2023-04-19T04:31:38;6.03;;;5.43;;
28270;SDS011;15527;0.000;0.000;2023-04-19T04:32:36;5.77;;;5.27;;
28270;SDS011;15527;0.000;0.000;2023-04-19T04:33:35;6.80;;;5.13;;
28270;SDS011;15527;0.000;0.000;2023-04-19T04:34:35;5.50;;;4.90;;
28270;SDS011;15527;0.000;0.000;2023-04-19T04:35:34;6.17;;;5.57;;
28270;SDS011;15527;0.000;0.000;2023-04-19T04:36:32;6.07;;;5.50;;
28270;SDS011;15527;0.000;0.000;2023-04-19T04:37:32;5.67;;;5.17;;
28270;SDS011;15527;0.000;0.000;2023-04-19T04:38:32;5.90;;;4.77;;
28270;SDS011;15527;0.000;0.000;2023-04-19T04:39:30;9.57;;;5.60;;
28270;SDS011;15527;0.000;0.000;2023-04-19T04:40:32;5.90;;;5.40;;
28270;SDS011;15527;0.000;0.000;2023-04-19T04:41:30;6.90;;;5.60;;
28270;SDS011;15527;0.000;0.000;2023-04-19T04:42:29;6.43;;;5.30;;
28270;SDS011;15527;0.000;0.000;2023-04-19T04:43:28;5.80;;;5.27;;
28270;SDS011;15527;0.000;0.000;2023-04-19T04:44:26;5.90;;;5.30;;
28270;SDS011;15527;0.000;0.000;2023-04-19T04:45:25;6.70;;;5.03;;
28270;SDS011;15527;0.000;0.000;2023-04-19T04:46:26;5.77;;;5.10;;
28270;SDS011;15527;0.000;0.000;2023-04-19T04:47:29;6.00;;;5.40;;
28270;SDS011;15527;0.000;0.000;2023-04-19T04:48:28;6.67;;;4.70;;
28270;SDS011;15527;0.000;0.000;2023-04-19T04:49:28;7.37;;;5.67;;
28270;SDS011;15527;0.000;0.000;2023-04-19T04:50:27;6.93;;;5.73;;
28270;SDS011;15527;0.000;0.000;2023-04-19T04:51:26;5.33;;;4.83;;
28270;SDS011;15527;0.000;0.000;2023-04-19T04:52:24;5.97;;;5.37;;
28270;SDS011;15527;0.000;0.000;2023-04-19T04:53:26;5.53;;;5.03;;
28270;SDS011;15527;0.000;0.000;2023-04-19T04:54:25;6.87;;;5.40;;
28270;SDS011;15527;0.000;0.000;2023-04-19T04:55:23;7.17;;;5.27;;
28270;SDS011;15527;0.000;0.000;2023-04-19T04:56:22;6.30;;;5.70;;
28270;SDS011;15527;0.000;0.000;2023-04-19T04:57:22;5.70;;;5.17;;
28270;SDS011;15527;0.000;0.000;2023-04-19T04:58:21;6.53;;;5.60;;
28270;SDS011;15527;0.000;0.000;2023-04-19T04:59:19;6.00;;;5.40;;
28270;SDS011;15527;0.000;0.000;2023-04-19T05:00:18;6.43;;;5.63;;
28270;SDS011;15527;0.000;0.000;2023-04-19T05:01:17;5.90;;;5.20;;
28270;SDS011;15527;0.000;0.000;2023-04-19T05:02:16;6.77;;;5.77;;
28270;SDS011;15527;0.000;0.000;2023-04-19T05:03:15;6.50;;;5.73;;
28270;SDS011;15527;0.000;0.000;2023-04-19T05:04:14;6.73;;;5.43;;
28270;SDS011;15527;0.000;0.000;2023-04-19T05:05:12;6.20;;;5.53;;
28270;SDS011;15527;0.000;0.000;2023-04-19T05:06:11;6.00;;;5.40;;
28270;SDS011;15527;0.000;0.000;2023-04-19T05:07:09;6.43;;;5.33;;
28270;SDS011;15527;0.000;0.000;2023-04-19T05:08:08;6.03;;;5.43;;
28270;SDS011;15527;0.000;0.000;2023-04-19T05:09:07;6.07;;;5.47;;
28270;SDS011;15527;0.000;0.000;2023-04-19T05:10:05;7.07;;;5.67;;
28270;SDS011;15527;0.000;0.000;2023-04-19T05:11:04;6.43;;;5.60;;
28270;SDS011;15527;0.000;0.000;2023-04-19T05:12:03;6.27;;;5.57;;
28270;SDS011;15527;0.000;0.000;2023-04-19T05:13:02;8.20;;;5.93;;
28270;SDS011;15527;0.000;0.000;2023-04-19T05:14:01;8.00;;;5.93;;
28270;SDS011;15527;0.000;0.000;2023-04-19T05:15:00;6.23;;;5.60;;
28270;SDS011;15527;0.000;0.000;2023-04-19T05:15:59;6.10;;;5.50;;
28270;SDS011;15527;0.000;0.000;2023-04-19T05:16:57;6.40;;;5.77;;
28270;SDS011;15527;0.000;0.000;2023-04-19T05:17:56;8.63;;;5.73;;
28270;SDS011;15527;0.000;0.000;2023-04-19T05:18:55;7.83;;;6.00;;
28270;SDS011;15527;0.000;0.000;2023-04-19T05:19:53;6.27;;;5.67;;
28270;SDS011;15527;0.000;0.000;2023-04-19T05:20:52;7.70;;;5.87;;
28270;SDS011;15527;0.000;0.000;2023-04-19T05:21:50;6.53;;;5.87;;
28270;SDS011;15527;0.000;0.000;2023-04-19T05:22:49;6.63;;;5.93;;
28270;SDS011;15527;0.000;0.000;2023-04-19T05:23:47;7.50;;;6.13;;
28270;SDS011;15527;0.000;0.000;2023-04-19T05:24:46;7.13;;;5.83;;
28270;SDS011;15527;0.000;0.000;2023-04-19T05:25:47;6.50;;;5.90;;
28270;SDS011;15527;0.000;0.000;2023-04-19T05:26:45;7.53;;;5.63;;
28270;SDS011;15527;0.000;0.000;2023-04-19T05:27:44;6.93;;;6.17;;
28270;SDS011;15527;0.000;0.000;2023-04-19T05:28:43;6.10;;;5.27;;
28270;SDS011;15527;0.000;0.000;2023-04-19T05:29:42;6.63;;;6.03;;
28270;SDS011;15527;0.000;0.000;2023-04-19T05:30:40;7.80;;;6.30;;
28270;SDS011;15527;0.000;0.000;2023-04-19T05:31:39;6.47;;;5.40;;
28270;SDS011;15527;0.000;0.000;2023-04-19T05:32:38;7.70;;;6.53;;
28270;SDS011;15527;0.000;0.000;2023-04-19T05:33:36;7.77;;;6.43;;
28270;SDS011;15527;0.000;0.000;2023-04-19T05:34:35;8.83;;;5.67;;
28270;SDS011;15527;0.000;0.000;2023-04-19T05:35:34;7.13;;;6.03;;
28270;SDS011;15527;0.000;0.000;2023-04-19T05:36:32;7.93;;;5.93;;
28270;SDS011;15527;0.000;0.000;2023-04-19T05:37:31;9.30;;;6.47;;
28270;SDS011;15527;0.000;0.000;2023-04-19T05:38:29;7.90;;;5.43;;
28270;SDS011;15527;0.000;0.000;2023-04-19T05:39:28;8.93;;;5.87;;
28270;SDS011;15527;0.000;0.000;2023-04-19T05:40:27;6.50;;;5.90;;
28270;SDS011;15527;0.000;0.000;2023-04-19T05:41:26;6.93;;;6.23;;
28270;SDS011;15527;0.000;0.000;2023-04-19T05:42:24;6.50;;;5.90;;
28270;SDS011;15527;0.000;0.000;2023-04-19T05:43:23;8.20;;;5.90;;
28270;SDS011;15527;0.000;0.000;2023-04-19T05:44:24;6.40;;;5.80;;
28270;SDS011;15527;0.000;0.000;2023-04-19T05:45:23;8.10;;;6.33;;
28270;SDS011;15527;0.000;0.000;2023-04-19T05:46:22;7.77;;;6.37;;
28270;SDS011;15527;0.000;0.000;2023-04-19T05:47:21;7.07;;;6.10;;
28270;SDS011;15527;0.000;0.000;2023-04-19T05:48:19;7.33;;;6.23;;
28270;SDS011;15527;0.000;0.000;2023-04-19T05:49:18;9.30;;;6.50;;
28270;SDS011;15527;0.000;0.000;2023-04-19T05:50:16;10.57;;;6.53;;
28270;SDS011;15527;0.000;0.000;2023-04-19T05:51:17;7.77;;;6.27;;
28270;SDS011;15527;0.000;0.000;2023-04-19T05:52:15;7.57;;;5.93;;
28270;SDS011;15527;0.000;0.000;2023-04-19T05:53:14;8.53;;;6.30;;
28270;SDS011;15527;0.000;0.000;2023-04-19T05:54:13;6.60;;;6.00;;